sensor_id;sensor_type;location;lat;lon;timestamp;temperature;humidity
67572;SHT31;54397;47.506;19.158;2022-10-17T00:01:58;12.30;75.71
67572;SHT31;54397;47.506;19.158;2022-10-17T00:05:19;12.37;75.42
67572;SHT31;54397;47.506;19.158;2022-10-17T00:08:41;12.25;75.37
67572;SHT31;54397;47.506;19.158;2022-10-17T00:12:06;12.20;75.25
67572;SHT31;54397;47.506;19.158;2022-10-17T00:15:27;12.18;75.53
67572;SHT31;54397;47.506;19.158;2022-10-17T00:18:52;12.14;75.18
67572;SHT31;54397;47.506;19.158;2022-10-17T00:22:14;12.11;75.42
67572;SHT31;54397;47.506;19.158;2022-10-17T00:25:36;12.11;75.47
67572;SHT31;54397;47.506;19.158;2022-10-17T00:28:57;12.07;75.57
67572;SHT31;54397;47.506;19.158;2022-10-17T00:32:20;12.08;75.75
67572;SHT31;54397;47.506;19.158;2022-10-17T00:35:41;12.05;75.30
67572;SHT31;54397;47.506;19.158;2022-10-17T00:39:03;11.98;75.28
67572;SHT31;54397;47.506;19.158;2022-10-17T00:42:29;11.87;75.27
67572;SHT31;54397;47.506;19.158;2022-10-17T00:45:52;11.79;75.44
67572;SHT31;54397;47.506;19.158;2022-10-17T00:49:13;11.80;75.64
67572;SHT31;54397;47.506;19.158;2022-10-17T00:52:38;11.76;75.88
67572;SHT31;54397;47.506;19.158;2022-10-17T00:56:00;11.73;76.31
67572;SHT31;54397;47.506;19.158;2022-10-17T00:59:25;11.75;75.67
67572;SHT31;54397;47.506;19.158;2022-10-17T01:02:47;11.70;75.94
67572;SHT31;54397;47.506;19.158;2022-10-17T01:06:11;11.67;75.79
67572;SHT31;54397;47.506;19.158;2022-10-17T01:09:33;11.63;75.64
67572;SHT31;54397;47.506;19.158;2022-10-17T01:13:20;11.61;75.81
67572;SHT31;54397;47.506;19.158;2022-10-17T01:16:55;11.55;75.87
67572;SHT31;54397;47.506;19.158;2022-10-17T01:35:45;11.35;76.28
67572;SHT31;54397;47.506;19.158;2022-10-17T01:42:53;11.22;76.96
67572;SHT31;54397;47.506;19.158;2022-10-17T01:46:25;11.24;76.74
67572;SHT31;54397;47.506;19.158;2022-10-17T01:49:56;11.22;76.85
67572;SHT31;54397;47.506;19.158;2022-10-17T01:53:26;11.21;76.90
67572;SHT31;54397;47.506;19.158;2022-10-17T01:56:53;11.19;76.94
67572;SHT31;54397;47.506;19.158;2022-10-17T02:00:20;11.27;76.67
67572;SHT31;54397;47.506;19.158;2022-10-17T02:03:44;11.28;76.48
67572;SHT31;54397;47.506;19.158;2022-10-17T02:07:11;11.24;76.31
67572;SHT31;54397;47.506;19.158;2022-10-17T02:18:58;11.21;76.74
67572;SHT31;54397;47.506;19.158;2022-10-17T02:25:50;11.19;77.07
67572;SHT31;54397;47.506;19.158;2022-10-17T02:29:23;11.22;76.48
67572;SHT31;54397;47.506;19.158;2022-10-17T02:36:38;11.19;76.52
67572;SHT31;54397;47.506;19.158;2022-10-17T02:40:02;11.18;76.81
67572;SHT31;54397;47.506;19.158;2022-10-17T02:43:27;11.14;76.80
67572;SHT31;54397;47.506;19.158;2022-10-17T02:46:55;11.12;76.24
67572;SHT31;54397;47.506;19.158;2022-10-17T02:50:23;11.10;76.18
67572;SHT31;54397;47.506;19.158;2022-10-17T02:54:08;11.03;76.36
67572;SHT31;54397;47.506;19.158;2022-10-17T02:57:38;11.00;76.63
67572;SHT31;54397;47.506;19.158;2022-10-17T03:01:02;11.00;76.75
67572;SHT31;54397;47.506;19.158;2022-10-17T03:04:24;10.98;76.37
67572;SHT31;54397;47.506;19.158;2022-10-17T03:07:49;10.90;76.40
67572;SHT31;54397;47.506;19.158;2022-10-17T03:11:11;10.97;76.35
67572;SHT31;54397;47.506;19.158;2022-10-17T03:14:32;10.91;76.38
67572;SHT31;54397;47.506;19.158;2022-10-17T03:17:54;10.88;76.28
67572;SHT31;54397;47.506;19.158;2022-10-17T03:21:18;10.81;76.57
67572;SHT31;54397;47.506;19.158;2022-10-17T03:24:40;10.81;76.32
67572;SHT31;54397;47.506;19.158;2022-10-17T03:28:01;10.83;76.18
67572;SHT31;54397;47.506;19.158;2022-10-17T03:31:23;10.84;76.54
67572;SHT31;54397;47.506;19.158;2022-10-17T03:34:47;10.84;76.46
67572;SHT31;54397;47.506;19.158;2022-10-17T03:38:09;10.84;76.27
67572;SHT31;54397;47.506;19.158;2022-10-17T03:41:32;10.88;76.17
67572;SHT31;54397;47.506;19.158;2022-10-17T03:44:54;10.87;76.57
67572;SHT31;54397;47.506;19.158;2022-10-17T03:48:18;10.87;76.69
67572;SHT31;54397;47.506;19.158;2022-10-17T03:51:39;10.88;76.49
67572;SHT31;54397;47.506;19.158;2022-10-17T03:55:03;10.83;77.00
67572;SHT31;54397;47.506;19.158;2022-10-17T03:58:25;10.85;76.96
67572;SHT31;54397;47.506;19.158;2022-10-17T04:01:49;10.77;75.92
67572;SHT31;54397;47.506;19.158;2022-10-17T04:05:10;10.73;76.82
67572;SHT31;54397;47.506;19.158;2022-10-17T04:08:35;10.76;76.75
67572;SHT31;54397;47.506;19.158;2022-10-17T04:11:57;10.70;76.44
67572;SHT31;54397;47.506;19.158;2022-10-17T04:15:21;10.73;77.32
67572;SHT31;54397;47.506;19.158;2022-10-17T04:18:44;10.76;77.27
67572;SHT31;54397;47.506;19.158;2022-10-17T04:22:06;10.81;77.02
67572;SHT31;54397;47.506;19.158;2022-10-17T04:25:30;10.80;77.42
67572;SHT31;54397;47.506;19.158;2022-10-17T04:28:56;10.73;78.13
67572;SHT31;54397;47.506;19.158;2022-10-17T04:32:18;10.60;77.02
67572;SHT31;54397;47.506;19.158;2022-10-17T04:35:40;10.73;77.31
67572;SHT31;54397;47.506;19.158;2022-10-17T04:39:01;10.70;77.43
67572;SHT31;54397;47.506;19.158;2022-10-17T04:42:27;10.74;77.73
67572;SHT31;54397;47.506;19.158;2022-10-17T04:45:51;10.77;77.31
67572;SHT31;54397;47.506;19.158;2022-10-17T04:49:18;10.70;76.99
67572;SHT31;54397;47.506;19.158;2022-10-17T04:52:39;10.70;75.92
67572;SHT31;54397;47.506;19.158;2022-10-17T04:56:07;10.63;76.32
67572;SHT31;54397;47.506;19.158;2022-10-17T04:59:31;10.64;76.50
67572;SHT31;54397;47.506;19.158;2022-10-17T05:02:53;10.64;76.47
67572;SHT31;54397;47.506;19.158;2022-10-17T05:06:18;10.67;76.75
67572;SHT31;54397;47.506;19.158;2022-10-17T05:09:39;10.66;77.17
67572;SHT31;54397;47.506;19.158;2022-10-17T05:13:03;10.69;77.64
67572;SHT31;54397;47.506;19.158;2022-10-17T05:16:26;10.71;77.01
67572;SHT31;54397;47.506;19.158;2022-10-17T05:19:51;10.76;76.65
67572;SHT31;54397;47.506;19.158;2022-10-17T05:23:12;10.73;76.27
67572;SHT31;54397;47.506;19.158;2022-10-17T05:26:34;10.73;76.39
67572;SHT31;54397;47.506;19.158;2022-10-17T05:30:00;10.74;75.98
67572;SHT31;54397;47.506;19.158;2022-10-17T05:33:22;10.67;76.10
67572;SHT31;54397;47.506;19.158;2022-10-17T05:36:49;10.70;76.31
67572;SHT31;54397;47.506;19.158;2022-10-17T05:40:10;10.70;76.67
67572;SHT31;54397;47.506;19.158;2022-10-17T05:43:34;10.73;77.13
67572;SHT31;54397;47.506;19.158;2022-10-17T05:46:56;10.79;76.88
67572;SHT31;54397;47.506;19.158;2022-10-17T05:50:20;11.06;83.67
67572;SHT31;54397;47.506;19.158;2022-10-17T05:53:45;11.77;85.52
67572;SHT31;54397;47.506;19.158;2022-10-17T05:57:07;12.25;81.03
67572;SHT31;54397;47.506;19.158;2022-10-17T06:00:30;12.70;80.07
67572;SHT31;54397;47.506;19.158;2022-10-17T06:03:52;12.99;78.08
67572;SHT31;54397;47.506;19.158;2022-10-17T06:07:16;13.04;72.85
67572;SHT31;54397;47.506;19.158;2022-10-17T06:10:40;12.79;72.44
67572;SHT31;54397;47.506;19.158;2022-10-17T06:14:01;12.49;73.76
67572;SHT31;54397;47.506;19.158;2022-10-17T06:17:24;12.35;74.96
67572;SHT31;54397;47.506;19.158;2022-10-17T06:20:45;12.21;76.22
67572;SHT31;54397;47.506;19.158;2022-10-17T06:24:07;12.11;77.31
67572;SHT31;54397;47.506;19.158;2022-10-17T06:27:30;12.08;77.69
67572;SHT31;54397;47.506;19.158;2022-10-17T06:30:54;12.13;78.15
67572;SHT31;54397;47.506;19.158;2022-10-17T06:34:18;12.20;78.08
67572;SHT31;54397;47.506;19.158;2022-10-17T06:37:40;12.32;78.14
67572;SHT31;54397;47.506;19.158;2022-10-17T06:41:09;12.49;77.62
67572;SHT31;54397;47.506;19.158;2022-10-17T06:44:33;12.85;76.87
67572;SHT31;54397;47.506;19.158;2022-10-17T06:47:55;13.09;75.73
67572;SHT31;54397;47.506;19.158;2022-10-17T06:51:16;13.16;75.72
67572;SHT31;54397;47.506;19.158;2022-10-17T06:54:38;13.26;75.28
67572;SHT31;54397;47.506;19.158;2022-10-17T06:58:02;13.41;74.42
67572;SHT31;54397;47.506;19.158;2022-10-17T07:01:24;13.64;74.45
67572;SHT31;54397;47.506;19.158;2022-10-17T07:04:46;13.83;73.95
67572;SHT31;54397;47.506;19.158;2022-10-17T07:08:08;14.03;73.66
67572;SHT31;54397;47.506;19.158;2022-10-17T07:11:30;14.34;71.36
67572;SHT31;54397;47.506;19.158;2022-10-17T07:14:51;14.88;69.56
67572;SHT31;54397;47.506;19.158;2022-10-17T07:18:13;15.29;67.96
67572;SHT31;54397;47.506;19.158;2022-10-17T07:21:37;15.68;69.53
67572;SHT31;54397;47.506;19.158;2022-10-17T07:25:05;16.49;72.84
67572;SHT31;54397;47.506;19.158;2022-10-17T07:28:27;17.25;66.88
67572;SHT31;54397;47.506;19.158;2022-10-17T07:31:51;17.01;64.40
67572;SHT31;54397;47.506;19.158;2022-10-17T07:35:13;17.24;65.29
67572;SHT31;54397;47.506;19.158;2022-10-17T07:38:35;17.69;57.85
67572;SHT31;54397;47.506;19.158;2022-10-17T07:41:57;17.57;56.60
67572;SHT31;54397;47.506;19.158;2022-10-17T07:45:21;17.98;56.69
67572;SHT31;54397;47.506;19.158;2022-10-17T07:48:44;18.40;55.31
67572;SHT31;54397;47.506;19.158;2022-10-17T07:52:05;18.56;54.56
67572;SHT31;54397;47.506;19.158;2022-10-17T07:55:29;17.76;54.66
67572;SHT31;54397;47.506;19.158;2022-10-17T07:58:52;17.53;56.17
67572;SHT31;54397;47.506;19.158;2022-10-17T08:02:24;17.38;56.95
67572;SHT31;54397;47.506;19.158;2022-10-17T08:05:48;18.03;57.25
67572;SHT31;54397;47.506;19.158;2022-10-17T08:09:09;17.67;55.52
67572;SHT31;54397;47.506;19.158;2022-10-17T08:12:31;17.79;54.87
67572;SHT31;54397;47.506;19.158;2022-10-17T08:16:01;17.75;57.78
67572;SHT31;54397;47.506;19.158;2022-10-17T08:19:25;17.52;56.16
67572;SHT31;54397;47.506;19.158;2022-10-17T08:22:53;17.63;57.11
67572;SHT31;54397;47.506;19.158;2022-10-17T08:26:15;17.93;57.37
67572;SHT31;54397;47.506;19.158;2022-10-17T08:29:38;18.01;54.74
67572;SHT31;54397;47.506;19.158;2022-10-17T08:33:00;18.32;56.50
67572;SHT31;54397;47.506;19.158;2022-10-17T08:36:26;18.59;54.75
67572;SHT31;54397;47.506;19.158;2022-10-17T08:39:49;18.82;53.70
67572;SHT31;54397;47.506;19.158;2022-10-17T08:47:25;19.04;50.69
67572;SHT31;54397;47.506;19.158;2022-10-17T08:50:52;19.87;50.25
67572;SHT31;54397;47.506;19.158;2022-10-17T08:54:19;19.59;48.60
67572;SHT31;54397;47.506;19.158;2022-10-17T08:57:43;19.38;49.47
67572;SHT31;54397;47.506;19.158;2022-10-17T09:05:24;20.48;47.47
67572;SHT31;54397;47.506;19.158;2022-10-17T09:12:31;21.46;45.15
67572;SHT31;54397;47.506;19.158;2022-10-17T09:19:43;20.72;45.82
67572;SHT31;54397;47.506;19.158;2022-10-17T09:23:18;20.85;48.95
67572;SHT31;54397;47.506;19.158;2022-10-17T09:26:44;21.02;47.75
67572;SHT31;54397;47.506;19.158;2022-10-17T09:30:33;21.57;46.59
67572;SHT31;54397;47.506;19.158;2022-10-17T09:34:13;22.29;44.89
67572;SHT31;54397;47.506;19.158;2022-10-17T09:37:39;21.92;42.39
67572;SHT31;54397;47.506;19.158;2022-10-17T09:41:04;21.61;44.10
67572;SHT31;54397;47.506;19.158;2022-10-17T09:44:56;22.06;48.80
67572;SHT31;54397;47.506;19.158;2022-10-17T09:51:46;23.31;47.47
67572;SHT31;54397;47.506;19.158;2022-10-17T09:58:55;22.53;45.24
67572;SHT31;54397;47.506;19.158;2022-10-17T10:02:22;22.52;40.20
67572;SHT31;54397;47.506;19.158;2022-10-17T10:09:24;23.74;40.28
67572;SHT31;54397;47.506;19.158;2022-10-17T10:16:41;23.93;37.08
67572;SHT31;54397;47.506;19.158;2022-10-17T10:20:34;24.90;36.60
67572;SHT31;54397;47.506;19.158;2022-10-17T10:24:25;23.46;38.08
67572;SHT31;54397;47.506;19.158;2022-10-17T10:27:54;22.36;40.99
67572;SHT31;54397;47.506;19.158;2022-10-17T10:31:27;22.35;40.36
67572;SHT31;54397;47.506;19.158;2022-10-17T10:35:01;22.83;40.39
67572;SHT31;54397;47.506;19.158;2022-10-17T10:38:30;23.31;40.30
67572;SHT31;54397;47.506;19.158;2022-10-17T10:41:52;23.55;37.35
67572;SHT31;54397;47.506;19.158;2022-10-17T10:45:23;24.07;37.70
67572;SHT31;54397;47.506;19.158;2022-10-17T10:49:30;23.65;39.32
67572;SHT31;54397;47.506;19.158;2022-10-17T10:53:10;24.00;39.29
67572;SHT31;54397;47.506;19.158;2022-10-17T11:04:00;24.76;36.83
67572;SHT31;54397;47.506;19.158;2022-10-17T11:07:26;24.80;37.25
67572;SHT31;54397;47.506;19.158;2022-10-17T11:22:13;25.03;37.46
67572;SHT31;54397;47.506;19.158;2022-10-17T11:25:39;25.57;36.47
67572;SHT31;54397;47.506;19.158;2022-10-17T11:29:03;25.74;35.76
67572;SHT31;54397;47.506;19.158;2022-10-17T11:32:32;25.81;35.57
67572;SHT31;54397;47.506;19.158;2022-10-17T11:36:02;24.86;36.30
67572;SHT31;54397;47.506;19.158;2022-10-17T11:43:17;25.16;36.37
67572;SHT31;54397;47.506;19.158;2022-10-17T11:46:44;25.70;36.93
67572;SHT31;54397;47.506;19.158;2022-10-17T11:50:18;26.51;43.64
67572;SHT31;54397;47.506;19.158;2022-10-17T12:01:55;28.02;36.22
67572;SHT31;54397;47.506;19.158;2022-10-17T12:08:54;26.87;35.94
67572;SHT31;54397;47.506;19.158;2022-10-17T12:12:29;26.44;33.39
67572;SHT31;54397;47.506;19.158;2022-10-17T12:15:56;26.84;33.52
67572;SHT31;54397;47.506;19.158;2022-10-17T12:19:23;26.30;35.75
67572;SHT31;54397;47.506;19.158;2022-10-17T12:22:46;25.48;34.24
67572;SHT31;54397;47.506;19.158;2022-10-17T12:26:09;25.20;36.08
67572;SHT31;54397;47.506;19.158;2022-10-17T12:29:31;26.01;35.95
67572;SHT31;54397;47.506;19.158;2022-10-17T12:39:49;24.24;36.83
67572;SHT31;54397;47.506;19.158;2022-10-17T12:51:01;24.85;40.46
67572;SHT31;54397;47.506;19.158;2022-10-17T12:54:46;23.89;38.00
67572;SHT31;54397;47.506;19.158;2022-10-17T12:58:34;23.92;42.53
67572;SHT31;54397;47.506;19.158;2022-10-17T13:02:00;23.97;36.05
67572;SHT31;54397;47.506;19.158;2022-10-17T13:05:33;24.62;38.86
67572;SHT31;54397;47.506;19.158;2022-10-17T13:09:01;24.04;36.54
67572;SHT31;54397;47.506;19.158;2022-10-17T13:12:28;23.77;37.93
67572;SHT31;54397;47.506;19.158;2022-10-17T13:15:52;23.01;37.20
67572;SHT31;54397;47.506;19.158;2022-10-17T13:19:20;23.17;38.08
67572;SHT31;54397;47.506;19.158;2022-10-17T13:22:48;23.07;38.09
67572;SHT31;54397;47.506;19.158;2022-10-17T13:26:24;22.86;37.48
67572;SHT31;54397;47.506;19.158;2022-10-17T13:29:46;22.87;40.28
67572;SHT31;54397;47.506;19.158;2022-10-17T13:33:34;22.90;40.63
67572;SHT31;54397;47.506;19.158;2022-10-17T13:37:04;22.86;38.75
67572;SHT31;54397;47.506;19.158;2022-10-17T13:40:29;22.93;39.83
67572;SHT31;54397;47.506;19.158;2022-10-17T13:44:15;22.79;37.96
67572;SHT31;54397;47.506;19.158;2022-10-17T13:47:42;22.77;37.61
67572;SHT31;54397;47.506;19.158;2022-10-17T13:51:04;22.83;38.31
67572;SHT31;54397;47.506;19.158;2022-10-17T13:58:08;22.73;37.61
67572;SHT31;54397;47.506;19.158;2022-10-17T14:01:33;22.61;36.48
67572;SHT31;54397;47.506;19.158;2022-10-17T14:05:21;22.63;37.03
67572;SHT31;54397;47.506;19.158;2022-10-17T14:09:05;22.69;36.43
67572;SHT31;54397;47.506;19.158;2022-10-17T14:12:27;22.63;36.99
67572;SHT31;54397;47.506;19.158;2022-10-17T14:15:50;22.55;37.64
67572;SHT31;54397;47.506;19.158;2022-10-17T14:22:44;22.49;38.22
67572;SHT31;54397;47.506;19.158;2022-10-17T14:26:21;22.48;37.94
67572;SHT31;54397;47.506;19.158;2022-10-17T14:29:53;22.39;37.32
67572;SHT31;54397;47.506;19.158;2022-10-17T14:36:51;22.66;44.24
67572;SHT31;54397;47.506;19.158;2022-10-17T14:40:16;22.98;41.70
67572;SHT31;54397;47.506;19.158;2022-10-17T14:43:39;23.28;42.55
67572;SHT31;54397;47.506;19.158;2022-10-17T14:47:13;23.37;40.33
67572;SHT31;54397;47.506;19.158;2022-10-17T14:51:15;23.49;39.32
67572;SHT31;54397;47.506;19.158;2022-10-17T14:54:37;23.37;41.57
67572;SHT31;54397;47.506;19.158;2022-10-17T14:57:59;23.10;36.86
67572;SHT31;54397;47.506;19.158;2022-10-17T15:01:20;22.84;37.54
67572;SHT31;54397;47.506;19.158;2022-10-17T15:04:44;22.48;38.48
67572;SHT31;54397;47.506;19.158;2022-10-17T15:08:15;22.21;39.27
67572;SHT31;54397;47.506;19.158;2022-10-17T15:11:40;22.02;39.47
67572;SHT31;54397;47.506;19.158;2022-10-17T15:15:01;21.81;39.66
67572;SHT31;54397;47.506;19.158;2022-10-17T15:18:27;21.63;40.70
67572;SHT31;54397;47.506;19.158;2022-10-17T15:21:52;21.56;41.03
67572;SHT31;54397;47.506;19.158;2022-10-17T15:25:16;21.43;41.48
67572;SHT31;54397;47.506;19.158;2022-10-17T15:28:38;21.32;42.06
67572;SHT31;54397;47.506;19.158;2022-10-17T15:31:59;21.19;43.04
67572;SHT31;54397;47.506;19.158;2022-10-17T15:35:24;21.08;43.12
67572;SHT31;54397;47.506;19.158;2022-10-17T15:38:46;21.03;43.95
67572;SHT31;54397;47.506;19.158;2022-10-17T15:42:10;20.88;44.53
67572;SHT31;54397;47.506;19.158;2022-10-17T15:45:32;20.71;47.55
67572;SHT31;54397;47.506;19.158;2022-10-17T15:49:01;20.51;46.32
67572;SHT31;54397;47.506;19.158;2022-10-17T15:52:23;20.37;48.22
67572;SHT31;54397;47.506;19.158;2022-10-17T15:55:45;20.09;48.69
67572;SHT31;54397;47.506;19.158;2022-10-17T15:59:17;19.90;48.25
67572;SHT31;54397;47.506;19.158;2022-10-17T16:02:40;19.74;51.74
67572;SHT31;54397;47.506;19.158;2022-10-17T16:06:02;19.58;52.27
67572;SHT31;54397;47.506;19.158;2022-10-17T16:09:23;19.45;53.15
67572;SHT31;54397;47.506;19.158;2022-10-17T16:12:45;19.27;52.07
67572;SHT31;54397;47.506;19.158;2022-10-17T16:16:12;19.16;54.51
67572;SHT31;54397;47.506;19.158;2022-10-17T16:19:34;18.95;55.03
67572;SHT31;54397;47.506;19.158;2022-10-17T16:22:55;18.85;55.84
67572;SHT31;54397;47.506;19.158;2022-10-17T16:26:23;18.79;55.70
67572;SHT31;54397;47.506;19.158;2022-10-17T16:29:45;18.62;55.99
67572;SHT31;54397;47.506;19.158;2022-10-17T16:33:09;18.52;56.42
67572;SHT31;54397;47.506;19.158;2022-10-17T16:36:33;18.35;57.84
67572;SHT31;54397;47.506;19.158;2022-10-17T16:39:55;18.24;58.52
67572;SHT31;54397;47.506;19.158;2022-10-17T16:43:17;18.13;59.17
67572;SHT31;54397;47.506;19.158;2022-10-17T16:46:40;18.05;59.87
67572;SHT31;54397;47.506;19.158;2022-10-17T16:50:05;17.91;60.01
67572;SHT31;54397;47.506;19.158;2022-10-17T16:53:27;17.82;59.70
67572;SHT31;54397;47.506;19.158;2022-10-17T16:56:48;17.73;60.62
67572;SHT31;54397;47.506;19.158;2022-10-17T17:00:15;17.55;61.05
67572;SHT31;54397;47.506;19.158;2022-10-17T17:03:38;17.29;61.08
67572;SHT31;54397;47.506;19.158;2022-10-17T17:07:00;17.29;61.96
67572;SHT31;54397;47.506;19.158;2022-10-17T17:10:24;17.18;62.12
67572;SHT31;54397;47.506;19.158;2022-10-17T17:13:46;17.06;62.22
67572;SHT31;54397;47.506;19.158;2022-10-17T17:17:09;16.98;63.12
67572;SHT31;54397;47.506;19.158;2022-10-17T17:20:57;16.81;62.99
67572;SHT31;54397;47.506;19.158;2022-10-17T17:24:20;16.79;63.55
67572;SHT31;54397;47.506;19.158;2022-10-17T17:27:44;16.70;63.87
67572;SHT31;54397;47.506;19.158;2022-10-17T17:31:11;16.73;63.86
67572;SHT31;54397;47.506;19.158;2022-10-17T17:34:36;16.70;64.24
67572;SHT31;54397;47.506;19.158;2022-10-17T17:38:03;16.70;63.98
67572;SHT31;54397;47.506;19.158;2022-10-17T17:41:26;16.59;64.63
67572;SHT31;54397;47.506;19.158;2022-10-17T17:44:48;16.42;64.85
67572;SHT31;54397;47.506;19.158;2022-10-17T17:48:12;16.39;64.57
67572;SHT31;54397;47.506;19.158;2022-10-17T17:51:34;16.28;65.20
67572;SHT31;54397;47.506;19.158;2022-10-17T17:54:58;16.19;65.49
67572;SHT31;54397;47.506;19.158;2022-10-17T17:58:19;15.95;64.82
67572;SHT31;54397;47.506;19.158;2022-10-17T18:01:41;15.91;65.68
67572;SHT31;54397;47.506;19.158;2022-10-17T18:05:04;15.80;65.49
67572;SHT31;54397;47.506;19.158;2022-10-17T18:08:28;15.83;66.03
67572;SHT31;54397;47.506;19.158;2022-10-17T18:11:50;15.51;67.07
67572;SHT31;54397;47.506;19.158;2022-10-17T18:15:12;15.64;66.50
67572;SHT31;54397;47.506;19.158;2022-10-17T18:18:37;15.61;66.78
67572;SHT31;54397;47.506;19.158;2022-10-17T18:21:59;15.54;67.03
67572;SHT31;54397;47.506;19.158;2022-10-17T18:25:21;15.51;67.20
67572;SHT31;54397;47.506;19.158;2022-10-17T18:28:43;15.42;67.45
67572;SHT31;54397;47.506;19.158;2022-10-17T18:32:08;15.30;67.95
67572;SHT31;54397;47.506;19.158;2022-10-17T18:35:30;15.42;72.39
67572;SHT31;54397;47.506;19.158;2022-10-17T18:38:52;15.81;72.26
67572;SHT31;54397;47.506;19.158;2022-10-17T18:42:14;16.11;71.21
67572;SHT31;54397;47.506;19.158;2022-10-17T18:45:35;16.32;69.45
67572;SHT31;54397;47.506;19.158;2022-10-17T18:48:57;16.45;69.42
67572;SHT31;54397;47.506;19.158;2022-10-17T18:52:23;16.53;69.18
67572;SHT31;54397;47.506;19.158;2022-10-17T18:55:48;16.33;64.47
67572;SHT31;54397;47.506;19.158;2022-10-17T18:59:10;15.98;65.16
67572;SHT31;54397;47.506;19.158;2022-10-17T19:02:32;15.58;66.49
67572;SHT31;54397;47.506;19.158;2022-10-17T19:06:03;15.20;67.66
67572;SHT31;54397;47.506;19.158;2022-10-17T19:09:27;15.02;68.19
67572;SHT31;54397;47.506;19.158;2022-10-17T19:12:54;14.71;69.10
67572;SHT31;54397;47.506;19.158;2022-10-17T19:16:27;14.65;69.16
67572;SHT31;54397;47.506;19.158;2022-10-17T19:19:49;14.50;69.99
67572;SHT31;54397;47.506;19.158;2022-10-17T19:23:14;14.47;70.09
67572;SHT31;54397;47.506;19.158;2022-10-17T19:26:36;14.20;70.53
67572;SHT31;54397;47.506;19.158;2022-10-17T19:30:00;14.09;70.87
67572;SHT31;54397;47.506;19.158;2022-10-17T19:33:22;14.12;70.84
67572;SHT31;54397;47.506;19.158;2022-10-17T19:36:46;14.24;70.92
67572;SHT31;54397;47.506;19.158;2022-10-17T19:40:09;14.33;74.35
67572;SHT31;54397;47.506;19.158;2022-10-17T19:43:31;14.72;75.77
67572;SHT31;54397;47.506;19.158;2022-10-17T19:46:57;15.10;73.63
67572;SHT31;54397;47.506;19.158;2022-10-17T19:50:21;15.35;72.63
67572;SHT31;54397;47.506;19.158;2022-10-17T19:53:46;15.37;72.77
67572;SHT31;54397;47.506;19.158;2022-10-17T19:57:10;15.61;71.70
67572;SHT31;54397;47.506;19.158;2022-10-17T20:00:34;15.73;70.87
67572;SHT31;54397;47.506;19.158;2022-10-17T20:03:58;15.78;71.69
67572;SHT31;54397;47.506;19.158;2022-10-17T20:07:19;15.68;65.85
67572;SHT31;54397;47.506;19.158;2022-10-17T20:10:42;15.32;66.46
67572;SHT31;54397;47.506;19.158;2022-10-17T20:14:06;14.74;67.94
67572;SHT31;54397;47.506;19.158;2022-10-17T20:17:27;14.60;69.03
67572;SHT31;54397;47.506;19.158;2022-10-17T20:20:49;14.38;69.59
67572;SHT31;54397;47.506;19.158;2022-10-17T20:24:14;14.29;70.31
67572;SHT31;54397;47.506;19.158;2022-10-17T20:27:37;14.24;70.51
67572;SHT31;54397;47.506;19.158;2022-10-17T20:31:03;14.19;70.70
67572;SHT31;54397;47.506;19.158;2022-10-17T20:34:27;14.12;70.83
67572;SHT31;54397;47.506;19.158;2022-10-17T20:37:54;14.06;71.00
67572;SHT31;54397;47.506;19.158;2022-10-17T20:41:18;13.99;71.67
67572;SHT31;54397;47.506;19.158;2022-10-17T20:44:40;13.92;71.83
67572;SHT31;54397;47.506;19.158;2022-10-17T20:48:03;13.89;71.98
67572;SHT31;54397;47.506;19.158;2022-10-17T20:51:29;13.83;72.18
67572;SHT31;54397;47.506;19.158;2022-10-17T20:54:51;13.74;72.10
67572;SHT31;54397;47.506;19.158;2022-10-17T20:58:13;13.72;72.12
67572;SHT31;54397;47.506;19.158;2022-10-17T21:01:37;13.65;72.28
67572;SHT31;54397;47.506;19.158;2022-10-17T21:04:59;13.59;72.62
67572;SHT31;54397;47.506;19.158;2022-10-17T21:08:20;13.57;72.59
67572;SHT31;54397;47.506;19.158;2022-10-17T21:11:42;13.54;72.68
67572;SHT31;54397;47.506;19.158;2022-10-17T21:15:04;13.48;72.24
67572;SHT31;54397;47.506;19.158;2022-10-17T21:18:29;13.33;72.17
67572;SHT31;54397;47.506;19.158;2022-10-17T21:21:50;13.30;72.78
67572;SHT31;54397;47.506;19.158;2022-10-17T21:25:12;13.31;73.09
67572;SHT31;54397;47.506;19.158;2022-10-17T21:28:34;13.28;72.96
67572;SHT31;54397;47.506;19.158;2022-10-17T21:31:58;13.21;72.22
67572;SHT31;54397;47.506;19.158;2022-10-17T21:35:22;13.24;72.74
67572;SHT31;54397;47.506;19.158;2022-10-17T21:38:48;13.16;73.07
67572;SHT31;54397;47.506;19.158;2022-10-17T21:42:10;13.13;73.04
67572;SHT31;54397;47.506;19.158;2022-10-17T21:45:34;13.00;73.56
67572;SHT31;54397;47.506;19.158;2022-10-17T21:48:58;13.06;73.29
67572;SHT31;54397;47.506;19.158;2022-10-17T21:52:19;13.04;73.37
67572;SHT31;54397;47.506;19.158;2022-10-17T21:55:41;13.06;73.00
67572;SHT31;54397;47.506;19.158;2022-10-17T21:59:06;13.02;72.70
67572;SHT31;54397;47.506;19.158;2022-10-17T22:02:28;12.96;73.16
67572;SHT31;54397;47.506;19.158;2022-10-17T22:05:52;12.97;73.24
67572;SHT31;54397;47.506;19.158;2022-10-17T22:09:34;12.85;73.34
67572;SHT31;54397;47.506;19.158;2022-10-17T22:12:59;12.82;73.43
67572;SHT31;54397;47.506;19.158;2022-10-17T22:16:23;12.78;73.38
67572;SHT31;54397;47.506;19.158;2022-10-17T22:19:46;12.75;72.77
67572;SHT31;54397;47.506;19.158;2022-10-17T22:23:07;12.63;73.28
67572;SHT31;54397;47.506;19.158;2022-10-17T22:26:30;12.62;73.54
67572;SHT31;54397;47.506;19.158;2022-10-17T22:29:54;12.55;73.20
67572;SHT31;54397;47.506;19.158;2022-10-17T22:33:16;12.56;73.58
67572;SHT31;54397;47.506;19.158;2022-10-17T22:36:41;12.56;72.99
67572;SHT31;54397;47.506;19.158;2022-10-17T22:40:04;12.49;73.21
67572;SHT31;54397;47.506;19.158;2022-10-17T22:43:26;12.49;73.60
67572;SHT31;54397;47.506;19.158;2022-10-17T22:46:50;12.48;73.64
67572;SHT31;54397;47.506;19.158;2022-10-17T22:50:12;12.44;73.42
67572;SHT31;54397;47.506;19.158;2022-10-17T22:53:36;12.35;73.74
67572;SHT31;54397;47.506;19.158;2022-10-17T22:56:58;12.37;73.68
67572;SHT31;54397;47.506;19.158;2022-10-17T23:00:19;12.35;73.76
67572;SHT31;54397;47.506;19.158;2022-10-17T23:03:46;12.28;73.83
67572;SHT31;54397;47.506;19.158;2022-10-17T23:07:08;12.24;73.93
67572;SHT31;54397;47.506;19.158;2022-10-17T23:10:34;12.17;74.24
67572;SHT31;54397;47.506;19.158;2022-10-17T23:14:01;12.17;74.20
67572;SHT31;54397;47.506;19.158;2022-10-17T23:17:25;12.16;73.76
67572;SHT31;54397;47.506;19.158;2022-10-17T23:20:49;12.10;73.43